This is the latest recevied weather packets stored in our database for station/object WA1OUI. If no packets are shown the sender has not sent any weather packets the latest 1 day(s).
| Time | Temp. | Humidity | Pressure | Rain* | Wind** | Luminosity | Snow |
|---|---|---|---|---|---|---|---|
| 1778023646 | 20.56° C | 56% | 1006.2 hPa | 0 mm | 1.34 m/s, 352° | 9 W/m² | - |
| 1778023344 | 20.56° C | 55% | 1006.1 hPa | 0 mm | 0.89 m/s, 357° | 11 W/m² | - |
| 1778023040 | 20.56° C | 55% | 1006.1 hPa | 0 mm | 0.89 m/s, 15° | 13 W/m² | - |
| 1778022739 | 21.11° C | 54% | 1006.1 hPa | 0 mm | 0 m/s | 15 W/m² | - |
| 1778022437 | 21.11° C | 54% | 1006 hPa | 0 mm | 0 m/s | 18 W/m² | - |
| 1778022133 | 21.11° C | 53% | 1005.8 hPa | 0 mm | 0.45 m/s, 12° | 19 W/m² | - |
| 1778021830 | 21.11° C | 53% | 1006.1 hPa | 0 mm | 0.89 m/s, 2° | 22 W/m² | - |
| 1778021527 | 21.67° C | 53% | 1005.8 hPa | 0 mm | 0.89 m/s, 34° | 24 W/m² | - |
| 1778021222 | 21.67° C | 53% | 1005.6 hPa | 0 mm | 1.34 m/s, 8° | 27 W/m² | - |
| 1778020920 | 21.67° C | 53% | 1005.6 hPa | 0 mm | 0 m/s | 31 W/m² | - |
| 1778020618 | 21.67° C | 53% | 1005.5 hPa | 0 mm | 0 m/s | 33 W/m² | - |
| 1778020313 | 21.67° C | 54% | 1005.7 hPa | 0 mm | 0.45 m/s, 42° | 40 W/m² | - |
| 1778020009 | 21.67° C | 53% | 1005.4 hPa | 0 mm | 0.89 m/s, 334° | 37 W/m² | - |
| 1778019706 | 21.67° C | 53% | 1005.4 hPa | 0 mm | 0.89 m/s, 351° | 35 W/m² | - |
| 1778019403 | 21.67° C | 53% | 1005.4 hPa | 0 mm | 1.79 m/s, 0° | 37 W/m² | - |
| 1778019099 | 22.22° C | 52% | 1005.2 hPa | 0 mm | 1.34 m/s, 127° | 36 W/m² | - |
| 1778018797 | 22.22° C | 51% | 1004.9 hPa | 0 mm | 1.34 m/s, 135° | 35 W/m² | - |
| 1778018494 | 22.22° C | 51% | 1005.4 hPa | 0 mm | 0 m/s | 40 W/m² | - |
| 1778018192 | 22.78° C | 51% | 1005.3 hPa | 0 mm | 0 m/s | 41 W/m² | - |
| 1778017890 | 22.78° C | 50% | 1005.4 hPa | 0 mm | 0.45 m/s, 198° | 48 W/m² | - |
| 1778017588 | 22.78° C | 50% | 1005.4 hPa | 0 mm | 0.45 m/s, 4° | 54 W/m² | - |
| 1778017285 | 22.78° C | 49% | 1005.5 hPa | 0 mm | 0.45 m/s, 85° | 51 W/m² | - |
| 1778016982 | 23.33° C | 48% | 1005.6 hPa | 0 mm | 0.45 m/s, 169° | 56 W/m² | - |
| 1778016679 | 23.33° C | 48% | 1005.4 hPa | 0 mm | 0 m/s | 64 W/m² | - |
| 1778016375 | 23.89° C | 49% | 1005.2 hPa | 0 mm | 0 m/s | 71 W/m² | - |
* Rain latest hour (hover to see other rain measurements)
** Current wind speed in m/s (hover to see current wind gust speed)